createdAt,value
2023-05-01T00:01:31.305Z,83.16
2023-05-01T00:03:58.248Z,83.82
2023-05-01T00:06:25.418Z,84.28
2023-05-01T00:08:52.137Z,84.02
2023-05-01T00:11:18.748Z,83.37
2023-05-01T00:13:45.490Z,83.02
2023-05-01T00:16:13.068Z,82.91
2023-05-01T00:18:39.927Z,82.83
2023-05-01T00:21:06.588Z,83.11
2023-05-01T00:23:33.356Z,83.26
2023-05-01T00:26:00.025Z,82.77
2023-05-01T00:28:26.759Z,82.87
2023-05-01T00:30:53.431Z,83.16
2023-05-01T00:33:20.038Z,83.28
2023-05-01T00:35:46.993Z,83.44
2023-05-01T00:38:13.870Z,83.63
2023-05-01T00:40:45.244Z,83.46
2023-05-01T00:43:12.342Z,83.00
2023-05-01T00:45:40.701Z,82.59
2023-05-01T00:48:07.872Z,82.85
2023-05-01T00:50:34.554Z,82.87
2023-05-01T00:53:01.766Z,83.37
2023-05-01T00:55:28.903Z,83.08
2023-05-01T00:57:56.497Z,82.94
2023-05-01T01:00:24.875Z,83.07
2023-05-01T01:02:52.188Z,82.78
2023-05-01T01:05:21.856Z,83.15
2023-05-01T01:07:59.380Z,83.83
2023-05-01T01:10:44.927Z,84.19
2023-05-01T01:13:14.343Z,83.78
2023-05-01T01:15:59.629Z,83.74
2023-05-01T01:18:56.583Z,84.05
2023-05-01T01:21:36.814Z,84.02
2023-05-01T01:24:34.706Z,84.83
2023-05-01T01:27:20.635Z,84.96
2023-05-01T01:29:56.987Z,84.84
2023-05-01T01:32:53.789Z,84.84
2023-05-01T01:35:25.959Z,84.87
2023-05-01T01:38:17.950Z,85.09
2023-05-01T01:40:57.468Z,85.45
2023-05-01T01:43:26.385Z,85.65
2023-05-01T01:45:58.992Z,86.02
2023-05-01T01:48:31.949Z,86.39
2023-05-01T01:50:59.649Z,86.60
2023-05-01T01:53:28.601Z,86.37
2023-05-01T01:55:58.197Z,86.77
2023-05-01T01:58:27.040Z,86.65
2023-05-01T02:00:55.504Z,86.26
2023-05-01T02:03:24.437Z,86.45
2023-05-01T02:05:54.637Z,86.46
2023-05-01T02:08:21.584Z,86.69
2023-05-01T02:10:51.031Z,86.33
2023-05-01T02:13:18.384Z,86.25
2023-05-01T02:15:45.955Z,86.11
2023-05-01T02:18:14.774Z,85.39
2023-05-01T02:20:42.905Z,85.49
2023-05-01T02:23:10.291Z,85.68
2023-05-01T02:25:39.549Z,85.78
2023-05-01T02:28:13.283Z,85.70
2023-05-01T02:30:40.416Z,85.92
2023-05-01T02:33:08.966Z,85.67
2023-05-01T02:35:44.032Z,85.54
2023-05-01T02:38:13.107Z,85.78
2023-05-01T02:40:40.513Z,85.93
2023-05-01T02:43:11.541Z,86.11
2023-05-01T02:45:40.613Z,86.12
2023-05-01T02:48:10.027Z,86.12
2023-05-01T02:50:40.728Z,86.39
2023-05-01T02:53:08.268Z,86.59
2023-05-01T02:55:35.955Z,87.10
2023-05-01T02:58:02.621Z,86.89
2023-05-01T03:00:31.587Z,86.76
2023-05-01T03:02:58.435Z,86.96
2023-05-01T03:05:25.220Z,86.72
2023-05-01T03:07:51.864Z,86.68
2023-05-01T03:10:18.883Z,86.53
2023-05-01T03:12:45.507Z,86.62
2023-05-01T03:15:12.716Z,86.61
2023-05-01T03:17:39.848Z,86.70
2023-05-01T03:20:07.341Z,86.65
2023-05-01T03:22:33.985Z,86.65
2023-05-01T03:25:00.961Z,86.88
2023-05-01T03:27:27.833Z,86.61
2023-05-01T03:29:54.657Z,86.53
2023-05-01T03:32:21.679Z,86.31
2023-05-01T03:34:48.510Z,86.07
2023-05-01T03:37:18.429Z,85.95
2023-05-01T03:39:45.145Z,85.90
2023-05-01T03:42:11.751Z,85.67
2023-05-01T03:44:38.332Z,85.49
2023-05-01T03:47:05.009Z,85.14
2023-05-01T03:49:31.653Z,85.30
2023-05-01T03:51:58.410Z,85.12
2023-05-01T03:54:25.902Z,85.46
2023-05-01T03:56:52.609Z,85.50
2023-05-01T03:59:19.368Z,85.43
2023-05-01T04:01:46.143Z,85.36
2023-05-01T04:04:14.049Z,85.26
2023-05-01T04:06:41.166Z,85.05
2023-05-01T04:09:08.325Z,85.05
2023-05-01T04:11:34.991Z,85.63
2023-05-01T04:14:01.604Z,84.93
2023-05-01T04:16:28.429Z,84.63
2023-05-01T04:18:55.112Z,84.65
2023-05-01T04:21:21.892Z,84.68
2023-05-01T04:23:48.507Z,84.44
2023-05-01T04:26:15.383Z,84.49
2023-05-01T04:28:42.165Z,84.14
2023-05-01T04:31:08.807Z,83.86
2023-05-01T04:33:35.454Z,83.76
2023-05-01T04:36:02.544Z,83.43
2023-05-01T04:38:30.384Z,83.42
2023-05-01T04:40:59.449Z,83.75
2023-05-01T04:43:26.007Z,83.62
2023-05-01T04:45:52.644Z,83.07
2023-05-01T04:48:19.348Z,82.29
2023-05-01T04:50:46.031Z,81.82
2023-05-01T04:53:12.610Z,81.91
2023-05-01T04:55:39.288Z,81.90
2023-05-01T04:58:06.063Z,81.90
2023-05-01T05:00:32.698Z,81.44
2023-05-01T05:02:59.415Z,80.91
2023-05-01T05:05:26.404Z,80.47
2023-05-01T05:07:53.076Z,80.76
2023-05-01T05:10:22.030Z,80.59
2023-05-01T05:12:48.617Z,80.77
2023-05-01T05:15:16.546Z,79.79
2023-05-01T05:17:43.249Z,79.45
2023-05-01T05:20:10.290Z,79.25
2023-05-01T05:22:37.677Z,79.20
2023-05-01T05:25:06.786Z,79.33
2023-05-01T05:27:38.373Z,79.24
2023-05-01T05:30:06.074Z,79.09
2023-05-01T05:32:33.817Z,78.90
2023-05-01T05:35:00.633Z,78.90
2023-05-01T05:37:27.364Z,78.49
2023-05-01T05:39:54.411Z,78.63
2023-05-01T05:42:21.152Z,78.09
2023-05-01T05:44:47.794Z,77.96
2023-05-01T05:47:14.441Z,77.45
2023-05-01T05:49:41.267Z,77.86
2023-05-01T05:52:07.938Z,78.26
2023-05-01T05:54:34.676Z,77.78
2023-05-01T05:57:02.725Z,77.63
2023-05-01T05:59:29.350Z,77.19
2023-05-01T06:01:55.865Z,77.19
2023-05-01T06:04:22.394Z,77.06
2023-05-01T06:06:49.055Z,77.30
2023-05-01T06:09:17.294Z,76.85
2023-05-01T06:11:43.845Z,76.43
2023-05-01T06:14:10.824Z,75.84
2023-05-01T06:16:38.240Z,75.70
2023-05-01T06:19:05.264Z,75.66
2023-05-01T06:21:34.677Z,76.14
2023-05-01T06:24:01.405Z,75.80
2023-05-01T06:26:28.378Z,75.70
2023-05-01T06:28:55.278Z,75.13
2023-05-01T06:31:21.960Z,75.12
2023-05-01T06:33:48.545Z,74.97
2023-05-01T06:36:15.266Z,74.56
2023-05-01T06:38:44.897Z,74.52
2023-05-01T06:41:11.398Z,74.36
2023-05-01T06:43:39.919Z,74.27
2023-05-01T06:46:06.420Z,73.88
2023-05-01T06:48:33.038Z,73.36
2023-05-01T06:50:59.522Z,72.57
2023-05-01T06:53:26.009Z,72.31
2023-05-01T06:55:52.523Z,71.80
2023-05-01T06:58:24.114Z,71.39
2023-05-01T07:00:51.390Z,71.08
2023-05-01T07:03:20.497Z,70.63
2023-05-01T07:05:47.040Z,70.36
2023-05-01T07:08:14.445Z,70.52
2023-05-01T07:10:42.209Z,70.31
2023-05-01T07:13:09.542Z,70.80
2023-05-01T07:15:36.190Z,70.81
2023-05-01T07:18:03.297Z,70.66
2023-05-01T07:20:33.722Z,70.40
2023-05-01T07:23:00.658Z,70.13
2023-05-01T07:25:27.163Z,69.78
2023-05-01T07:27:56.966Z,69.31
2023-05-01T07:30:23.943Z,69.00
2023-05-01T07:32:53.229Z,68.95
2023-05-01T07:35:19.713Z,68.18
2023-05-01T07:37:46.227Z,67.91
2023-05-01T07:40:12.741Z,67.19
2023-05-01T07:42:39.425Z,66.21
2023-05-01T07:45:06.407Z,65.83
2023-05-01T07:47:33.064Z,65.07
2023-05-01T07:49:59.776Z,64.60
2023-05-01T07:52:26.278Z,64.16
2023-05-01T07:54:53.155Z,63.10
2023-05-01T07:57:19.930Z,62.29
2023-05-01T07:59:46.446Z,61.27
2023-05-01T08:02:13.986Z,58.79
2023-05-01T08:04:41.721Z,58.01
2023-05-01T08:07:08.618Z,56.29
2023-05-01T08:09:35.105Z,54.59
2023-05-01T08:12:03.915Z,54.60
2023-05-01T08:14:30.898Z,53.20
2023-05-01T08:16:57.427Z,52.39
2023-05-01T08:19:24.448Z,53.16
2023-05-01T08:21:51.069Z,52.74
2023-05-01T08:24:17.697Z,49.41
2023-05-01T08:26:44.217Z,49.31
2023-05-01T08:29:13.561Z,48.39
2023-05-01T08:31:40.400Z,49.74
2023-05-01T08:34:07.088Z,48.64
2023-05-01T08:36:34.023Z,48.70
2023-05-01T08:39:00.668Z,48.67
2023-05-01T08:41:28.040Z,47.98
2023-05-01T08:43:56.762Z,47.10
2023-05-01T08:46:29.206Z,47.07
2023-05-01T08:48:57.841Z,47.64
2023-05-01T08:51:25.627Z,48.38
2023-05-01T08:53:52.829Z,48.94
2023-05-01T08:56:20.238Z,48.93
2023-05-01T08:58:49.390Z,48.71
2023-05-01T09:01:16.161Z,48.73
2023-05-01T09:03:44.602Z,48.05
2023-05-01T09:06:11.958Z,47.31
2023-05-01T09:08:38.617Z,46.41
2023-05-01T09:11:08.371Z,45.54
2023-05-01T09:13:35.001Z,43.90
2023-05-01T09:16:01.723Z,42.85
2023-05-01T09:18:28.464Z,42.14
2023-05-01T09:20:55.488Z,41.92
2023-05-01T09:23:22.128Z,42.62
2023-05-01T09:25:51.396Z,42.63
2023-05-01T09:28:18.691Z,42.75
2023-05-01T09:30:45.446Z,43.11
2023-05-01T09:33:13.567Z,42.62
2023-05-01T09:35:54.721Z,42.32
2023-05-01T09:38:25.806Z,41.64
2023-05-01T09:40:54.195Z,40.81
2023-05-01T09:43:27.922Z,41.17
2023-05-01T09:46:13.122Z,40.79
2023-05-01T09:48:40.185Z,40.26
2023-05-01T09:51:27.208Z,39.52
2023-05-01T09:53:56.651Z,39.88
2023-05-01T09:56:23.969Z,39.79
2023-05-01T09:58:52.340Z,39.45
2023-05-01T10:01:22.205Z,38.51
2023-05-01T10:03:55.202Z,38.55
2023-05-01T10:06:28.841Z,38.64
2023-05-01T10:08:55.784Z,38.92
2023-05-01T10:11:23.703Z,38.10
2023-05-01T10:14:10.527Z,37.83
2023-05-01T10:16:38.889Z,37.14
2023-05-01T10:19:06.145Z,37.61
2023-05-01T10:21:33.640Z,37.64
2023-05-01T10:24:03.677Z,37.59
2023-05-01T10:26:30.361Z,37.12
2023-05-01T10:28:59.675Z,37.62
2023-05-01T10:31:27.882Z,37.55
2023-05-01T10:33:56.454Z,36.04
2023-05-01T10:36:26.853Z,35.01
2023-05-01T10:38:53.651Z,34.09
2023-05-01T10:42:00.566Z,34.08
2023-05-01T10:44:27.740Z,33.74
2023-05-01T10:46:55.526Z,33.70
2023-05-01T10:49:22.565Z,34.36
2023-05-01T10:51:58.530Z,33.53
2023-05-01T10:54:29.051Z,34.07
2023-05-01T10:57:01.414Z,33.77
2023-05-01T11:00:17.446Z,34.32
2023-05-01T11:02:44.091Z,36.05
2023-05-01T11:05:11.055Z,36.17
2023-05-01T11:07:37.751Z,36.66
2023-05-01T11:10:27.480Z,36.96
2023-05-01T11:12:54.342Z,36.98
2023-05-01T11:15:34.071Z,37.51
2023-05-01T11:18:06.138Z,37.27
2023-05-01T11:20:35.545Z,36.30
2023-05-01T11:23:02.169Z,37.09
2023-05-01T11:25:31.065Z,37.56
2023-05-01T11:28:02.594Z,37.23
2023-05-01T11:30:39.452Z,37.53
2023-05-01T11:33:10.207Z,37.92
2023-05-01T11:35:38.690Z,36.84
2023-05-01T11:38:16.405Z,36.51
2023-05-01T11:40:43.129Z,36.88
2023-05-01T11:43:09.947Z,36.27
2023-05-01T11:45:37.874Z,36.75
2023-05-01T11:48:14.083Z,36.96
2023-05-01T11:50:40.831Z,36.12
2023-05-01T11:53:14.474Z,35.22
2023-05-01T11:55:45.099Z,35.30
2023-05-01T11:58:12.766Z,34.87
2023-05-01T12:00:42.088Z,34.96
2023-05-01T12:03:10.965Z,34.91
2023-05-01T12:05:42.908Z,34.64
2023-05-01T12:08:12.243Z,34.70
2023-05-01T12:10:41.190Z,34.36
2023-05-01T12:13:09.128Z,33.88
2023-05-01T12:15:38.209Z,33.55
2023-05-01T12:18:05.958Z,34.37
2023-05-01T12:20:36.242Z,33.78
2023-05-01T12:23:05.284Z,34.32
2023-05-01T12:25:34.285Z,34.20
2023-05-01T12:28:09.943Z,33.62
2023-05-01T12:30:37.720Z,34.04
2023-05-01T12:33:15.850Z,33.50
2023-05-01T12:35:47.126Z,34.85
2023-05-01T12:38:22.076Z,34.85
2023-05-01T12:40:56.824Z,33.57
2023-05-01T12:43:33.979Z,31.63
2023-05-01T12:46:01.256Z,31.44
2023-05-01T12:48:28.162Z,30.92
2023-05-01T12:50:55.284Z,31.05
2023-05-01T12:53:26.182Z,30.91
2023-05-01T12:55:56.671Z,30.53
2023-05-01T12:58:26.528Z,30.99
2023-05-01T13:00:55.500Z,30.90
2023-05-01T13:03:27.623Z,30.49
2023-05-01T13:06:06.004Z,29.99
2023-05-01T13:08:36.970Z,29.58
2023-05-01T13:11:14.716Z,29.52
2023-05-01T13:13:43.251Z,29.49
2023-05-01T13:16:12.727Z,29.13
2023-05-01T13:18:50.295Z,29.41
2023-05-01T13:21:22.119Z,30.12
2023-05-01T13:23:59.823Z,29.74
2023-05-01T13:26:31.728Z,29.05
2023-05-01T13:29:00.228Z,29.10
2023-05-01T13:31:27.621Z,28.96
2023-05-01T13:33:55.971Z,28.49
2023-05-01T13:36:26.677Z,28.92
2023-05-01T13:38:56.885Z,28.27
2023-05-01T13:41:28.992Z,100.00
2023-05-01T13:43:56.753Z,100.00
2023-05-01T13:46:24.950Z,100.00
2023-05-01T13:48:54.874Z,28.02
2023-05-01T13:51:24.198Z,27.45
2023-05-01T13:53:53.671Z,27.48
2023-05-01T13:56:21.848Z,27.88
2023-05-01T13:58:50.237Z,27.73
2023-05-01T14:01:22.452Z,27.73
2023-05-01T14:03:50.290Z,27.58
2023-05-01T14:06:19.265Z,26.74
2023-05-01T14:08:48.070Z,26.85
2023-05-01T14:11:15.917Z,27.01
2023-05-01T14:13:45.007Z,27.16
2023-05-01T14:16:22.193Z,26.08
2023-05-01T14:18:48.892Z,27.08
2023-05-01T14:21:17.515Z,26.98
2023-05-01T14:23:44.442Z,26.61
2023-05-01T14:26:17.026Z,27.09
2023-05-01T14:28:45.312Z,26.69
2023-05-01T14:31:27.358Z,26.65
2023-05-01T14:33:59.231Z,27.07
2023-05-01T14:36:28.630Z,26.79
2023-05-01T14:39:04.364Z,26.98
2023-05-01T14:41:32.184Z,26.89
2023-05-01T14:44:05.069Z,26.82
2023-05-01T14:46:35.364Z,26.12
2023-05-01T14:49:05.284Z,26.21
2023-05-01T14:51:32.347Z,25.86
2023-05-01T14:53:59.622Z,25.70
2023-05-01T14:56:26.272Z,25.48
2023-05-01T14:58:52.880Z,25.23
2023-05-01T15:01:26.904Z,24.62
2023-05-01T15:03:56.512Z,24.62
2023-05-01T15:06:24.875Z,24.09
2023-05-01T15:08:54.495Z,23.94
2023-05-01T15:11:21.745Z,23.47
2023-05-01T15:13:50.532Z,23.19
2023-05-01T15:16:17.501Z,23.20
2023-05-01T15:18:49.062Z,22.16
2023-05-01T15:21:18.743Z,21.72
2023-05-01T15:23:46.266Z,21.81
2023-05-01T15:26:13.375Z,21.94
2023-05-01T15:28:40.022Z,20.83
2023-05-01T15:31:07.138Z,20.32
2023-05-01T15:33:36.767Z,21.31
2023-05-01T15:36:06.311Z,20.88
2023-05-01T15:38:35.857Z,21.08
2023-05-01T15:41:02.497Z,20.16
2023-05-01T15:43:29.145Z,20.88
2023-05-01T15:46:02.510Z,20.06
2023-05-01T15:48:32.752Z,20.23
2023-05-01T15:51:05.141Z,20.07
2023-05-01T15:53:31.682Z,19.93
2023-05-01T15:55:58.672Z,20.28
2023-05-01T15:58:32.770Z,20.13
2023-05-01T16:01:01.667Z,20.56
2023-05-01T16:03:28.653Z,20.38
2023-05-01T16:06:00.673Z,20.19
2023-05-01T16:08:27.545Z,20.38
2023-05-01T16:10:56.708Z,21.08
2023-05-01T16:13:23.955Z,20.92
2023-05-01T16:15:52.693Z,20.84
2023-05-01T16:18:25.439Z,20.13
2023-05-01T16:20:59.594Z,20.41
2023-05-01T16:23:29.813Z,20.99
2023-05-01T16:25:56.736Z,21.06
2023-05-01T16:28:25.158Z,21.41
2023-05-01T16:30:56.094Z,25.01
2023-05-01T16:33:26.568Z,28.93
2023-05-01T16:35:55.582Z,30.38
2023-05-01T16:38:27.547Z,29.91
2023-05-01T16:40:57.308Z,29.55
2023-05-01T16:43:24.235Z,27.08
2023-05-01T16:45:54.161Z,29.20
2023-05-01T16:48:24.245Z,31.08
2023-05-01T16:50:51.515Z,32.61
2023-05-01T16:53:21.545Z,33.62
2023-05-01T16:55:48.137Z,33.89
2023-05-01T16:58:19.471Z,35.14
2023-05-01T17:00:46.297Z,34.90
2023-05-01T17:03:14.420Z,35.54
2023-05-01T17:05:41.142Z,36.31
2023-05-01T17:08:07.894Z,36.92
2023-05-01T17:10:34.538Z,37.84
2023-05-01T17:13:01.482Z,38.87
2023-05-01T17:15:30.322Z,39.43
2023-05-01T17:17:57.030Z,39.08
2023-05-01T17:20:23.658Z,39.15
2023-05-01T17:22:50.229Z,39.83
2023-05-01T17:25:17.012Z,40.62
2023-05-01T17:27:43.640Z,41.08
2023-05-01T17:30:10.582Z,41.22
2023-05-01T17:32:37.853Z,41.87
2023-05-01T17:35:05.813Z,42.88
2023-05-01T17:37:39.704Z,42.67
2023-05-01T17:40:07.407Z,43.26
2023-05-01T17:42:34.033Z,43.59
2023-05-01T17:45:07.765Z,43.48
2023-05-01T17:47:34.938Z,43.65
2023-05-01T17:50:05.720Z,43.96
2023-05-01T17:52:32.370Z,44.43
2023-05-01T17:54:59.000Z,44.19
2023-05-01T17:57:25.868Z,44.86
2023-05-01T17:59:52.663Z,45.37
2023-05-01T18:02:19.424Z,45.77
2023-05-01T18:04:49.604Z,45.87
2023-05-01T18:07:16.366Z,46.16
2023-05-01T18:09:43.069Z,46.27
2023-05-01T18:12:10.348Z,46.65
2023-05-01T18:14:37.525Z,47.46
2023-05-01T18:17:06.976Z,47.47
2023-05-01T18:19:33.715Z,47.43
2023-05-01T18:22:00.379Z,48.60
2023-05-01T18:24:27.335Z,48.54
2023-05-01T18:26:53.977Z,48.81
2023-05-01T18:29:22.800Z,48.78
2023-05-01T18:31:55.735Z,49.33
2023-05-01T18:34:22.448Z,50.52
2023-05-01T18:36:52.278Z,51.29
2023-05-01T18:39:22.465Z,52.09
2023-05-01T18:41:54.492Z,52.50
2023-05-01T18:44:21.189Z,53.18
2023-05-01T18:46:47.955Z,52.68
2023-05-01T18:49:14.621Z,52.46
2023-05-01T18:51:43.681Z,53.42
2023-05-01T18:54:10.531Z,53.22
2023-05-01T18:56:37.228Z,53.05
2023-05-01T18:59:03.905Z,53.66
2023-05-01T19:01:30.645Z,54.83
2023-05-01T19:03:59.449Z,54.91
2023-05-01T19:06:29.349Z,55.04
2023-05-01T19:08:56.140Z,54.75
2023-05-01T19:11:25.168Z,54.88
2023-05-01T19:13:52.760Z,55.37
2023-05-01T19:16:19.463Z,55.62
2023-05-01T19:18:48.392Z,55.28
2023-05-01T19:21:15.486Z,56.32
2023-05-01T19:23:43.264Z,57.18
2023-05-01T19:26:09.989Z,56.60
2023-05-01T19:28:38.591Z,56.26
2023-05-01T19:31:05.647Z,56.75
2023-05-01T19:33:32.267Z,56.56
2023-05-01T19:35:58.938Z,56.42
2023-05-01T19:38:29.707Z,56.74
2023-05-01T19:40:59.345Z,56.77
2023-05-01T19:43:25.976Z,56.97
2023-05-01T19:45:53.584Z,57.18
2023-05-01T19:48:20.340Z,58.41
2023-05-01T19:50:51.867Z,58.51
2023-05-01T19:53:18.553Z,58.36
2023-05-01T19:55:47.767Z,59.25
2023-05-01T19:58:15.150Z,58.98
2023-05-01T20:00:42.221Z,58.90
2023-05-01T20:03:10.833Z,59.63
2023-05-01T20:05:37.739Z,60.43
2023-05-01T20:08:05.177Z,60.28
2023-05-01T20:10:31.988Z,60.79
2023-05-01T20:12:58.962Z,61.38
2023-05-01T20:15:26.013Z,62.31
2023-05-01T20:17:55.329Z,62.93
2023-05-01T20:20:22.056Z,64.21
2023-05-01T20:22:52.244Z,63.74
2023-05-01T20:25:18.894Z,64.13
2023-05-01T20:27:45.537Z,64.51
2023-05-01T20:30:12.483Z,63.58
2023-05-01T20:32:42.629Z,63.77
2023-05-01T20:35:11.347Z,63.60
2023-05-01T20:37:38.336Z,63.87
2023-05-01T20:40:07.181Z,65.20
2023-05-01T20:42:33.840Z,64.42
2023-05-01T20:45:00.437Z,64.69
2023-05-01T20:47:27.193Z,65.38
2023-05-01T20:49:54.127Z,65.60
2023-05-01T20:52:20.743Z,65.93
2023-05-01T20:54:47.241Z,67.01
2023-05-01T20:57:16.828Z,67.37
2023-05-01T20:59:50.182Z,67.87
2023-05-01T21:02:17.148Z,68.19
2023-05-01T21:04:43.846Z,67.40
2023-05-01T21:07:10.324Z,67.98
2023-05-01T21:09:37.013Z,68.07
2023-05-01T21:12:04.024Z,68.32
2023-05-01T21:14:33.474Z,68.44
2023-05-01T21:17:00.392Z,68.68
2023-05-01T21:19:27.246Z,68.85
2023-05-01T21:21:55.267Z,69.35
2023-05-01T21:24:25.940Z,69.63
2023-05-01T21:26:55.448Z,68.99
2023-05-01T21:29:21.932Z,69.01
2023-05-01T21:31:49.248Z,68.19
2023-05-01T21:34:19.405Z,67.99
2023-05-01T21:36:46.070Z,68.30
2023-05-01T21:39:15.625Z,69.34
2023-05-01T21:41:42.200Z,69.08
2023-05-01T21:44:09.634Z,69.26
2023-05-01T21:46:37.167Z,68.79
2023-05-01T21:49:04.392Z,68.75
2023-05-01T21:51:32.974Z,69.23
2023-05-01T21:53:59.967Z,69.44
2023-05-01T21:56:26.761Z,69.78
2023-05-01T21:58:58.624Z,69.77
2023-05-01T22:01:25.745Z,69.73
2023-05-01T22:03:52.422Z,69.55
2023-05-01T22:06:19.000Z,70.07
2023-05-01T22:08:45.654Z,69.92
2023-05-01T22:11:12.204Z,69.59
2023-05-01T22:13:38.809Z,68.78
2023-05-01T22:16:05.875Z,68.53
2023-05-01T22:18:33.219Z,68.75
2023-05-01T22:21:01.447Z,69.38
2023-05-01T22:23:28.092Z,70.03
2023-05-01T22:25:59.918Z,70.41
2023-05-01T22:28:26.978Z,70.30
2023-05-01T22:30:53.562Z,70.13
2023-05-01T22:33:20.631Z,70.34
2023-05-01T22:35:47.238Z,70.76
2023-05-01T22:38:13.716Z,71.17
2023-05-01T22:40:40.211Z,71.37
2023-05-01T22:43:08.219Z,71.33
2023-05-01T22:45:35.031Z,71.00
2023-05-01T22:48:01.696Z,71.35
2023-05-01T22:50:28.302Z,71.74
2023-05-01T22:52:54.832Z,71.37
2023-05-01T22:55:21.477Z,71.40
2023-05-01T22:57:48.576Z,72.15
2023-05-01T23:00:15.096Z,72.33
2023-05-01T23:02:41.696Z,72.19
2023-05-01T23:05:09.128Z,71.14
2023-05-01T23:07:35.879Z,71.41
2023-05-01T23:10:04.838Z,70.42
2023-05-01T23:12:31.942Z,70.63
2023-05-01T23:14:58.656Z,71.02
2023-05-01T23:17:30.200Z,71.17
2023-05-01T23:19:58.567Z,71.35
2023-05-01T23:22:25.905Z,70.93
2023-05-01T23:24:52.616Z,70.84
2023-05-01T23:27:19.919Z,71.79
2023-05-01T23:29:53.991Z,72.52
2023-05-01T23:32:27.854Z,71.57
2023-05-01T23:34:55.042Z,72.10
2023-05-01T23:37:22.008Z,72.87
2023-05-01T23:39:48.663Z,72.82
2023-05-01T23:42:15.228Z,72.72
2023-05-01T23:44:41.762Z,72.57
2023-05-01T23:47:08.343Z,72.20
2023-05-01T23:49:34.897Z,72.36
2023-05-01T23:52:01.571Z,72.83
2023-05-01T23:54:28.214Z,73.41
2023-05-01T23:56:54.708Z,73.02
2023-05-01T23:59:21.219Z,73.60
